Aérodrome :
LOGIN :

S'inscrire | Disclaimer

   EN    FR    IT 

 










Légende :    VFR   VFR Marginal   IFR   IFR Intensif   IFR Très Intensif
Visi : 
Plafond : 
>= 8 km
>= 3000ft
5 à 8 km
1000 à 3000 ft
1500m à 5 km
500 à 1000 ft
800 à 1500m
200 à 500 ft
< 800m
< 200 ft
Symboles :   Orages  Brouillard  Fortes neiges  Fortes précipitations  Vent > 20 kt
SIGMETs :   Divers  Orages  Givrage  Turbulence  Onde Orograph.  Cendres Volcan.







- Altitude de l'aérodrome : 308 ft
- Code IATA : MHG


EDFM - Mannheim-City

DERNIER METAR :
  • 281720Z 30007KT CAVOK 20/05 Q1021

METARs EXPIRÉS :
  • 281650Z 27006KT 240V300 CAVOK 21/04 Q1021
  • 281620Z VRB03KT CAVOK 22/05 Q1021
  • 281550Z VRB02KT CAVOK 21/04 Q1021
  • 281520Z VRB03KT CAVOK 21/05 Q1021
  • 281450Z VRB05KT CAVOK 21/05 Q1021
  • 281420Z 18004KT 100V270 CAVOK 21/05 Q1022

TAF TAF EDFM
Valide du 28 à 15h jusqu'au 28 à 21h UTC


281400Z 2815/2821 23005KT CAVOK
Pas de NOTAMs connus pour ce terrain.



MET'MAP, la Météo Aéronautique d'un coup d'oeil ! - Copyright ORBIFLY Décembre 2007 - Disclaimer

ORBIFLY MET'MAP TEAM :

Programmation & Développement : Alexandra Zaïnal
Conception & Développement : Baudouin d'Aumeries
Co-Programmation & Développement : Marc-Olivier Méhu
Soutien technique & logistique : Manuel Goepfert

Contact : metmap@orbifly.com




SOURCES & CREDITS :

   NOAA